Time;durP1;ratioP1;P1;durP2;ratioP2;P2;SDS_P1;SDS_P2;PMS_P1;PMS_P2;Temp;Humidity;BMP_temperature;BMP_pressure;BME280_temperature;BME280_humidity;BME280_pressure;Samples;Min_cycle;Max_cycle;Signal;HPM_P1;HPM_P2
2023/02/21 02:14:19;;;;;;;7.25;4.15;;;;;;;3.87;100.00;96187.66;1042302;28;20761;-62
2023/02/21 02:15:08;;;;;;;14.48;4.97;;;;;;;4.10;100.00;96197.50;1030213;28;20817;-65
2023/02/21 02:15:41;;;;;;;10.05;4.07;;;;;;;4.38;100.00;96202.28;1035553;28;20553;-65
2023/02/21 02:16:42;;;;;;;6.03;4.30;;;;;;;4.36;100.00;96181.72;1041234;28;20291;-65
2023/02/21 02:17:21;;;;;;;7.95;4.07;;;;;;;4.52;100.00;96195.19;1039124;28;20320;-63
2023/02/21 02:17:55;;;;;;;7.93;4.13;;;;;;;4.45;100.00;96196.03;1039073;28;20189;-63
2023/02/21 02:18:36;;;;;;;7.13;3.92;;;;;;;4.56;100.00;96193.75;1040138;28;20111;-65
2023/02/21 02:19:07;;;;;;;8.23;4.13;;;;;;;4.56;100.00;96197.16;1038681;28;20290;-63
2023/02/21 02:19:49;;;;;;;9.23;4.20;;;;;;;4.47;100.00;96188.81;1038228;28;20267;-66
2023/02/21 02:20:57;;;;;;;7.95;4.15;;;;;;;4.51;100.00;96189.19;1038701;28;20571;-64
2023/02/21 02:22:12;;;;;;;5.85;3.85;;;;;;;4.39;100.00;96186.50;1047332;28;20904;-65
2023/02/21 02:23:04;;;;;;;7.82;4.25;;;;;;;4.29;100.00;96190.56;1035582;28;20352;-63
2023/02/21 02:24:08;;;;;;;10.05;4.68;;;;;;;4.40;100.00;96190.69;1032800;28;20277;-62
2023/02/21 02:24:53;;;;;;;7.80;3.88;;;;;;;4.33;100.00;96197.72;1035388;28;20598;-63
2023/02/21 02:25:48;;;;;;;7.25;3.60;;;;;;;4.30;100.00;96190.38;1044423;28;20260;-64
2023/02/21 02:26:40;;;;;;;5.97;4.13;;;;;;;4.41;100.00;96189.66;1043383;28;20259;-63
2023/02/21 02:27:10;;;;;;;7.70;3.92;;;;;;;4.31;100.00;96189.34;1043455;28;20279;-63
2023/02/21 02:27:54;;;;;;;6.22;4.00;;;;;;;4.36;100.00;96186.91;1043861;28;20252;-63
2023/02/21 02:28:40;;;;;;;9.57;4.25;;;;;;;4.28;100.00;96189.75;1043926;28;20074;-63
2023/02/21 02:29:25;;;;;;;5.90;3.70;;;;;;;4.27;100.00;96188.19;1039701;28;20263;-64
2023/02/21 02:30:10;;;;;;;6.45;4.22;;;;;;;4.18;100.00;96194.63;1039547;28;20256;-65
2023/02/21 02:30:56;;;;;;;8.05;4.53;;;;;;;4.12;100.00;96185.88;1043718;28;20629;-64
2023/02/21 02:31:44;;;;;;;7.65;4.18;;;;;;;4.11;100.00;96188.69;1043626;28;20317;-63
2023/02/21 02:32:42;;;;;;;9.07;4.40;;;;;;;4.05;100.00;96189.53;1043703;28;20251;-62
2023/02/21 02:33:35;;;;;;;8.93;4.40;;;;;;;3.98;100.00;96184.38;1045995;28;20258;-63
2023/02/21 02:34:27;;;;;;;6.15;3.90;;;;;;;3.97;100.00;96181.00;1043746;28;20254;-62
2023/02/21 02:34:57;;;;;;;10.13;4.38;;;;;;;3.99;100.00;96189.38;1039772;28;20646;-65
2023/02/21 02:35:31;;;;;;;6.60;4.72;;;;;;;4.12;100.00;96179.88;1040855;28;20283;-64
2023/02/21 02:36:08;;;;;;;8.23;4.47;;;;;;;4.10;100.00;96187.13;1038961;28;20101;-63
2023/02/21 02:36:39;;;;;;;7.57;4.82;;;;;;;4.00;100.00;96188.38;1038706;28;20271;-61
2023/02/21 02:37:17;;;;;;;8.27;4.50;;;;;;;4.00;100.00;96183.16;1030905;28;20473;-63
2023/02/21 02:37:52;;;;;;;8.88;4.68;;;;;;;3.96;100.00;96179.41;1034955;28;20582;-64
2023/02/21 02:38:40;;;;;;;6.38;4.07;;;;;;;4.01;100.00;96182.16;1037306;28;20348;-63
2023/02/21 02:39:24;;;;;;;6.75;4.32;;;;;;;4.05;100.00;96182.53;1047295;28;20309;-62
2023/02/21 02:39:56;;;;;;;7.70;4.07;;;;;;;4.07;100.00;96182.34;1039392;28;20346;-63
2023/02/21 02:40:45;;;;;;;10.55;4.53;;;;;;;4.13;100.00;96181.50;1039686;28;20315;-63
2023/02/21 02:41:23;;;;;;;8.95;4.38;;;;;;;4.16;100.00;96181.88;1039660;28;20263;-63
2023/02/21 02:42:00;;;;;;;7.15;4.55;;;;;;;4.06;100.00;96184.16;1039501;28;20256;-65
2023/02/21 02:42:40;;;;;;;9.10;4.85;;;;;;;3.99;100.00;96186.78;1039172;28;20291;-65
2023/02/21 02:43:43;;;;;;;8.30;5.38;;;;;;;4.02;100.00;96182.94;1031670;28;20316;-63
2023/02/21 02:44:18;;;;;;;8.23;4.15;;;;;;;4.08;100.00;96182.13;1020669;29;20035;-65
2023/02/21 02:45:20;;;;;;;8.07;4.15;;;;;;;4.09;100.00;96177.72;1036881;28;20253;-63
2023/02/21 02:45:55;;;;;;;8.07;4.05;;;;;;;3.99;100.00;96176.41;1031348;28;20639;-63
2023/02/21 02:46:27;;;;;;;7.72;4.35;;;;;;;3.98;100.00;96179.97;1032436;28;20785;-63
2023/02/21 02:46:58;;;;;;;7.90;4.53;;;;;;;3.99;100.00;96178.16;1027505;28;20250;-62
2023/02/21 02:47:31;;;;;;;8.73;3.95;;;;;;;4.00;100.00;96180.56;1031473;28;20688;-63
2023/02/21 02:48:06;;;;;;;6.93;4.55;;;;;;;3.92;100.00;96174.81;1033220;28;20307;-63
2023/02/21 02:48:42;;;;;;;7.47;4.47;;;;;;;3.87;100.00;96172.88;1028622;28;20258;-63
2023/02/21 02:49:23;;;;;;;10.07;4.60;;;;;;;3.77;100.00;96156.97;1031149;28;20250;-60
2023/02/21 02:49:53;;;;;;;;;;;;;;;3.97;100.00;96182.78;1036166;28;20339;-64
2023/02/21 02:50:24;;;;;;;8.93;4.50;;;;;;;4.03;100.00;96186.38;1035516;28;20070;-64
2023/02/21 02:50:54;;;;;;;7.65;4.32;;;;;;;4.09;100.00;96180.31;1027318;28;20098;-65
2023/02/21 02:51:24;;;;;;;8.85;4.90;;;;;;;4.20;100.00;96179.66;1022346;29;20099;-64
2023/02/21 02:51:55;;;;;;;7.72;3.95;;;;;;;4.17;100.00;96177.47;1027506;28;20133;-63
2023/02/21 02:52:25;;;;;;;8.10;4.32;;;;;;;4.21;100.00;96179.44;1039677;28;20079;-62
2023/02/21 02:53:00;;;;;;;9.88;4.80;;;;;;;4.25;100.00;96175.41;1039569;28;20032;-64
2023/02/21 02:53:30;;;;;;;10.68;4.97;;;;;;;4.21;100.00;96182.03;1027566;28;20027;-66
2023/02/21 02:54:01;;;;;;;8.48;4.68;;;;;;;4.19;100.00;96180.63;1028243;28;20823;-63
2023/02/21 02:54:31;;;;;;;12.07;4.45;;;;;;;4.21;100.00;96181.22;1031248;28;20033;-63
2023/02/21 02:55:22;;;;;;;8.65;4.68;;;;;;;4.27;100.00;96172.59;1031916;28;20369;-64
2023/02/21 02:55:57;;;;;;;9.95;3.90;;;;;;;4.29;100.00;96180.16;1039663;28;20053;-63
2023/02/21 02:56:29;;;;;;;7.75;4.63;;;;;;;4.24;100.00;96183.41;1039467;28;20537;-63
2023/02/21 02:57:01;;;;;;;8.48;4.68;;;;;;;4.14;100.00;96163.09;1039434;28;20276;-63
2023/02/21 02:57:39;;;;;;;10.40;4.82;;;;;;;4.15;100.00;96174.28;1041115;28;20271;-63
2023/02/21 02:58:11;;;;;;;11.20;4.63;;;;;;;4.25;100.00;96179.78;1037136;28;20758;-63
2023/02/21 02:59:07;;;;;;;9.38;4.60;;;;;;;4.31;100.00;96178.97;1034994;28;20269;-63
2023/02/21 02:59:40;;;;;;;8.43;4.45;;;;;;;4.28;100.00;96176.78;1032784;28;20266;-64
2023/02/21 03:00:11;;;;;;;8.93;4.53;;;;;;;4.27;100.00;96187.41;1035541;28;20836;-65
2023/02/21 03:00:44;;;;;;;8.15;4.55;;;;;;;4.22;100.00;96177.63;1035373;28;20339;-62
2023/02/21 03:01:58;;;;;;;10.93;4.88;;;;;;;4.13;100.00;96184.88;1035431;28;20257;-62
2023/02/21 03:02:37;;;;;;;11.95;5.47;;;;;;;4.15;100.00;96189.84;1045905;28;20298;-63
2023/02/21 03:03:30;;;;;;;10.85;6.03;;;;;;;4.10;100.00;96180.13;1047718;28;20472;-64
2023/02/21 03:04:06;;;;;;;6.13;4.28;;;;;;;3.98;100.00;96184.38;1035120;28;20253;-65
2023/02/21 03:04:42;;;;;;;8.32;4.93;;;;;;;3.92;100.00;96186.03;1034934;28;20257;-65
2023/02/21 03:05:37;;;;;;;9.05;5.38;;;;;;;3.86;100.00;96178.28;1043834;28;20252;-63
2023/02/21 03:06:13;;;;;;;7.43;4.53;;;;;;;3.97;100.00;96188.78;1039753;28;20787;-64
2023/02/21 03:06:51;;;;;;;11.95;4.30;;;;;;;3.99;100.00;96180.78;1038001;28;20751;-62
2023/02/21 03:07:40;;;;;;;9.55;5.40;;;;;;;3.97;100.00;96183.59;1035693;28;20249;-63
2023/02/21 03:08:53;;;;;;;8.10;4.50;;;;;;;4.05;100.00;96186.94;1039495;28;20327;-63
2023/02/21 03:09:39;;;;;;;9.05;4.47;;;;;;;3.98;100.00;96186.97;1046618;28;20265;-61
2023/02/21 03:10:21;;;;;;;10.02;5.35;;;;;;;3.89;100.00;96180.44;1043561;28;20275;-63
2023/02/21 03:10:51;;;;;;;9.30;4.65;;;;;;;3.90;100.00;96188.03;1043721;28;20768;-63
2023/02/21 03:11:23;;;;;;;10.57;5.40;;;;;;;3.98;100.00;96187.75;1039415;28;20247;-63
2023/02/21 03:12:07;;;;;;;9.63;4.65;;;;;;;3.92;100.00;96186.03;1037126;28;20021;-64
2023/02/21 03:12:49;;;;;;;7.40;4.60;;;;;;;3.95;100.00;96185.59;1031326;28;20261;-62
2023/02/21 03:13:37;;;;;;;9.45;4.80;;;;;;;3.96;100.00;96187.19;1030913;28;20269;-63
2023/02/21 03:14:15;;;;;;;10.10;5.03;;;;;;;3.88;100.00;96191.84;1035440;28;20272;-63
2023/02/21 03:14:49;;;;;;;8.55;4.70;;;;;;;3.92;100.00;96188.63;1031321;28;20394;-63
2023/02/21 03:15:22;;;;;;;8.27;4.82;;;;;;;3.89;100.00;96183.03;1031088;28;20766;-64
2023/02/21 03:15:58;;;;;;;7.32;4.80;;;;;;;3.89;100.00;96186.44;1027412;28;20319;-64
2023/02/21 03:16:30;;;;;;;8.57;4.95;;;;;;;3.96;100.00;96189.78;1035351;28;20338;-64
2023/02/21 03:17:02;;;;;;;8.82;4.65;;;;;;;3.91;100.00;96184.41;1038845;28;20646;-62
2023/02/21 03:17:36;;;;;;;12.18;5.50;;;;;;;3.81;100.00;96178.09;1039412;28;20252;-65
2023/02/21 03:18:44;;;;;;;8.25;4.80;;;;;;;3.80;100.00;96182.50;1031450;28;20265;-63
2023/02/21 03:19:30;;;;;;;9.52;4.63;;;;;;;3.73;100.00;96187.72;1022400;28;20305;-64
2023/02/21 03:20:00;;;;;;;6.55;4.63;;;;;;;3.86;100.00;96186.88;1037776;28;20270;-63
2023/02/21 03:20:31;;;;;;;7.20;4.60;;;;;;;3.82;100.00;96180.47;1039660;28;20710;-64
2023/02/21 03:21:04;;;;;;;6.28;4.07;;;;;;;3.81;100.00;96184.09;1035697;28;20116;-63
2023/02/21 03:21:44;;;;;;;8.65;4.90;;;;;;;3.87;100.00;96188.44;1032460;28;20044;-63
2023/02/21 03:22:16;;;;;;;8.55;5.00;;;;;;;3.89;100.00;96185.63;1027133;28;20659;-64
2023/02/21 03:22:46;;;;;;;7.97;5.63;;;;;;;3.81;100.00;96184.09;1032302;28;20736;-62
2023/02/21 03:23:17;;;;;;;8.45;4.60;;;;;;;3.77;100.00;96175.13;1039360;28;20326;-63
2023/02/21 03:23:49;;;;;;;9.23;5.43;;;;;;;3.71;100.00;96183.75;1035315;28;20124;-64
2023/02/21 03:24:19;;;;;;;10.07;5.22;;;;;;;3.63;100.00;96186.59;1031224;28;20057;-63
2023/02/21 03:24:50;;;;;;;11.27;5.28;;;;;;;3.59;100.00;96180.19;1035720;28;20339;-63
2023/02/21 03:25:21;;;;;;;10.85;5.28;;;;;;;3.50;100.00;96183.03;1033345;28;20222;-63
2023/02/21 03:25:51;;;;;;;7.97;4.97;;;;;;;3.57;100.00;96192.59;1036699;28;20321;-63
2023/02/21 03:26:22;;;;;;;11.65;5.00;;;;;;;3.66;100.00;96186.19;1026366;28;20027;-62
2023/02/21 03:26:55;;;;;;;9.10;4.93;;;;;;;3.62;100.00;96191.00;1029533;28;20472;-61
2023/02/21 03:27:26;;;;;;;7.95;4.85;;;;;;;3.56;100.00;96185.84;1028287;28;20096;-62
2023/02/21 03:27:56;;;;;;;9.45;4.72;;;;;;;3.62;100.00;96190.16;1026675;28;20324;-62
2023/02/21 03:28:27;;;;;;;8.32;4.38;;;;;;;3.59;100.00;96191.41;1026509;28;20027;-63
2023/02/21 03:28:57;;;;;;;7.63;4.88;;;;;;;3.52;100.00;96183.66;1034113;28;20456;-65
2023/02/21 03:29:28;;;;;;;8.93;5.63;;;;;;;3.58;100.00;96186.41;1033799;28;20110;-64
2023/02/21 03:30:00;;;;;;;9.13;5.05;;;;;;;3.58;100.00;96194.19;1038439;28;20095;-63
2023/02/21 03:30:31;;;;;;;11.02;5.20;;;;;;;3.63;100.00;96174.41;1030741;28;20480;-62
2023/02/21 03:31:02;;;;;;;9.40;5.20;;;;;;;3.70;100.00;96185.53;1031575;28;20301;-64
2023/02/21 03:31:36;;;;;;;9.00;5.43;;;;;;;3.57;100.00;96177.81;1035004;28;20026;-62
2023/02/21 03:32:45;;;;;;;8.18;5.00;;;;;;;3.52;100.00;96175.03;1042991;28;20286;-64
2023/02/21 03:33:15;;;;;;;9.48;5.38;;;;;;;3.62;100.00;96184.97;1034933;28;20277;-65
2023/02/21 03:33:46;;;;;;;8.43;4.57;;;;;;;3.59;100.00;96185.38;1033641;28;20270;-64
2023/02/21 03:34:16;;;;;;;10.95;4.65;;;;;;;3.53;100.00;96187.81;1038690;28;20032;-63
2023/02/21 03:34:47;;;;;;;10.88;5.28;;;;;;;3.67;100.00;96178.16;1035879;28;20170;-63
2023/02/21 03:35:18;;;;;;;12.65;5.78;;;;;;;3.61;100.00;96181.59;1039100;28;20029;-65
2023/02/21 03:35:49;;;;;;;6.82;5.00;;;;;;;3.56;100.00;96175.44;1039040;28;20451;-64
2023/02/21 03:36:19;;;;;;;8.60;5.35;;;;;;;3.59;100.00;96175.00;1031168;28;20332;-63
2023/02/21 03:36:50;;;;;;;7.18;4.80;;;;;;;3.54;100.00;96184.22;1026968;28;20420;-65
2023/02/21 03:37:31;;;;;;;8.25;5.00;;;;;;;3.57;100.00;96182.22;1025520;28;20026;-63
2023/02/21 03:38:02;;;;;;;6.78;4.45;;;;;;;3.71;100.00;96181.16;1034625;28;20038;-64
2023/02/21 03:38:33;;;;;;;10.10;4.95;;;;;;;3.66;100.00;96168.81;1030853;28;20278;-62
2023/02/21 03:39:03;;;;;;;6.80;4.47;;;;;;;3.67;100.00;96172.19;1026897;28;20023;-65
2023/02/21 03:39:34;;;;;;;8.93;5.40;;;;;;;3.81;100.00;96178.09;1030014;28;20026;-62
2023/02/21 03:40:10;;;;;;;8.95;4.88;;;;;;;3.74;100.00;96168.53;1026742;28;20038;-64
2023/02/21 03:40:40;;;;;;;10.55;6.13;;;;;;;3.78;100.00;96172.31;1026616;28;20027;-63
2023/02/21 03:41:11;;;;;;;9.32;4.88;;;;;;;3.77;100.00;96177.72;1032449;28;20628;-63
2023/02/21 03:41:41;;;;;;;6.88;4.82;;;;;;;3.75;100.00;96174.53;1034999;28;20024;-65
2023/02/21 03:42:12;;;;;;;8.13;4.50;;;;;;;3.78;100.00;96179.31;1035271;28;20036;-66
2023/02/21 03:42:42;;;;;;;8.10;4.65;;;;;;;3.75;100.00;96174.53;1038939;28;20376;-62
2023/02/21 03:43:13;;;;;;;9.18;5.03;;;;;;;3.77;100.00;96173.31;1035324;28;20101;-64
2023/02/21 03:43:43;;;;;;;11.98;5.10;;;;;;;3.83;100.00;96176.91;1043127;28;20024;-64
2023/02/21 03:44:14;;;;;;;10.35;5.13;;;;;;;3.78;100.00;96179.31;1042916;28;20513;-64
2023/02/21 03:44:44;;;;;;;9.30;4.70;;;;;;;3.86;100.00;96180.88;1043248;28;20044;-62
2023/02/21 03:45:15;;;;;;;9.52;4.93;;;;;;;3.91;100.00;96179.22;1047161;28;20051;-62
2023/02/21 03:45:45;;;;;;;10.23;5.50;;;;;;;3.90;100.00;96176.84;1047528;28;20305;-63
2023/02/21 03:46:16;;;;;;;9.70;4.70;;;;;;;3.82;100.00;96169.31;1042947;28;20020;-63
2023/02/21 03:46:46;;;;;;;6.97;4.78;;;;;;;3.85;100.00;96177.47;1038938;28;20108;-64
2023/02/21 03:47:17;;;;;;;9.45;5.15;;;;;;;3.86;100.00;96175.69;1030715;28;20026;-64
2023/02/21 03:47:47;;;;;;;9.52;5.38;;;;;;;3.92;100.00;96180.84;1026803;28;20440;-63
2023/02/21 03:48:18;;;;;;;8.60;5.40;;;;;;;3.91;100.00;96173.25;1026777;28;20026;-63
2023/02/21 03:48:48;;;;;;;8.98;5.15;;;;;;;3.91;100.00;96175.84;1021699;28;20459;-64
2023/02/21 03:49:19;;;;;;;8.13;4.75;;;;;;;3.92;100.00;96174.81;1030130;28;20022;-64
2023/02/21 03:49:49;;;;;;;8.10;4.90;;;;;;;3.90;100.00;96175.06;1034304;28;20391;-62
2023/02/21 03:50:19;;;;;;;8.63;4.60;;;;;;;3.82;100.00;96169.31;1039708;28;20025;-63
2023/02/21 03:50:50;;;;;;;7.97;4.43;;;;;;;3.89;100.00;96175.25;1040381;28;20029;-65
2023/02/21 03:51:20;;;;;;;10.05;5.00;;;;;;;3.89;100.00;96178.66;1043024;28;20132;-62
2023/02/21 03:51:51;;;;;;;11.30;4.93;;;;;;;3.86;100.00;96176.47;1034887;28;20022;-63
2023/02/21 03:52:21;;;;;;;10.48;5.20;;;;;;;3.85;100.00;96174.06;1032235;28;20488;-63
2023/02/21 03:52:52;;;;;;;8.23;5.00;;;;;;;3.75;100.00;96169.34;1031336;28;20030;-64
2023/02/21 03:53:22;;;;;;;9.70;4.93;;;;;;;3.91;100.00;96174.03;1034760;28;20021;-65
2023/02/21 03:53:53;;;;;;;7.93;5.05;;;;;;;3.93;100.00;96169.44;1035066;28;20018;-60
2023/02/21 03:54:24;;;;;;;7.75;5.13;;;;;;;3.93;100.00;96161.66;1027641;28;20019;-63
2023/02/21 03:54:54;;;;;;;7.68;4.75;;;;;;;3.92;100.00;96178.25;1030008;28;20023;-64
2023/02/21 03:55:25;;;;;;;12.25;5.68;;;;;;;3.87;100.00;96174.69;1038069;28;20338;-63
2023/02/21 03:55:55;;;;;;;9.70;4.63;;;;;;;3.87;100.00;96170.28;1030811;28;20310;-63
2023/02/21 03:56:26;;;;;;;8.60;4.50;;;;;;;3.84;100.00;96170.69;1034855;28;20583;-64
2023/02/21 03:56:56;;;;;;;8.52;4.68;;;;;;;3.82;100.00;96175.28;1038787;28;20025;-66
2023/02/21 03:57:27;;;;;;;14.65;4.65;;;;;;;3.76;100.00;96170.94;1038790;28;20460;-64
2023/02/21 03:57:57;;;;;;;8.45;4.57;;;;;;;3.71;100.00;96168.16;1039257;28;20021;-64
2023/02/21 03:58:27;;;;;;;6.30;4.80;;;;;;;3.65;100.00;96174.19;1042990;28;20055;-62
2023/02/21 03:58:58;;;;;;;12.02;4.80;;;;;;;3.74;100.00;96168.53;1042596;28;20083;-63
2023/02/21 03:59:28;;;;;;;6.90;4.40;;;;;;;3.78;100.00;96172.31;1038486;28;20029;-62
2023/02/21 03:59:59;;;;;;;7.63;4.45;;;;;;;3.82;100.00;96170.09;1038662;28;20515;-63
2023/02/21 04:00:29;;;;;;;8.30;5.10;;;;;;;3.84;100.00;96168.09;1038885;28;20021;-64
2023/02/21 04:01:00;;;;;;;8.18;4.65;;;;;;;3.86;100.00;96167.91;1039006;28;20033;-64
2023/02/21 04:01:30;;;;;;;9.25;4.88;;;;;;;3.83;100.00;96176.09;1043049;28;20029;-64
2023/02/21 04:02:01;;;;;;;9.90;5.10;;;;;;;3.84;100.00;96165.50;1047327;28;20036;-63
2023/02/21 04:02:31;;;;;;;10.95;5.07;;;;;;;3.85;100.00;96169.69;1047156;28;20505;-63
2023/02/21 04:03:02;;;;;;;6.55;4.63;;;;;;;3.81;100.00;96165.13;1046821;28;20397;-64
2023/02/21 04:03:32;;;;;;;9.30;4.65;;;;;;;3.85;100.00;96169.69;1043064;28;20024;-63
2023/02/21 04:04:03;;;;;;;7.38;4.55;;;;;;;3.81;100.00;96168.50;1042985;28;20036;-63
2023/02/21 04:04:33;;;;;;;8.18;4.95;;;;;;;3.81;100.00;96167.72;1042876;28;20032;-61
2023/02/21 04:05:04;;;;;;;10.10;4.93;;;;;;;3.80;100.00;96161.75;1038784;28;20228;-65
2023/02/21 04:05:35;;;;;;;11.35;5.07;;;;;;;3.83;100.00;96166.50;1038728;28;20410;-64
2023/02/21 04:06:05;;;;;;;10.35;5.07;;;;;;;3.79;100.00;96160.16;1039137;28;20080;-63
2023/02/21 04:06:36;;;;;;;9.77;5.30;;;;;;;3.91;100.00;96168.84;1034660;28;20319;-64
2023/02/21 04:07:06;;;;;;;7.88;4.90;;;;;;;3.74;100.00;96149.59;1034877;28;20057;-63
2023/02/21 04:07:37;;;;;;;6.97;4.40;;;;;;;3.94;100.00;96162.44;1030956;28;20502;-64
2023/02/21 04:08:07;;;;;;;8.50;4.47;;;;;;;4.03;100.00;96168.19;1024079;28;20080;-62
2023/02/21 04:08:38;;;;;;;6.53;4.25;;;;;;;4.05;100.00;96166.94;1031230;28;20468;-64
2023/02/21 04:09:08;;;;;;;7.13;4.30;;;;;;;3.98;100.00;96164.41;1031814;28;20105;-62
2023/02/21 04:09:38;;;;;;;7.60;4.00;;;;;;;4.00;100.00;96165.00;1022592;28;20039;-65
2023/02/21 04:10:09;;;;;;;9.40;4.68;;;;;;;3.97;100.00;96149.84;1023766;28;20122;-66
2023/02/21 04:10:39;;;;;;;7.03;4.55;;;;;;;4.17;100.00;96160.09;1022756;29;20054;-62
2023/02/21 04:11:10;;;;;;;7.43;3.95;;;;;;;4.28;100.00;96163.00;1023000;28;20039;-63
2023/02/21 04:11:44;;;;;;;7.72;4.15;;;;;;;4.35;100.00;96155.94;1024428;28;20074;-63
2023/02/21 04:12:14;;;;;;;8.38;4.13;;;;;;;4.29;100.00;96152.38;1035454;28;20087;-61
2023/02/21 04:12:45;;;;;;;7.38;4.50;;;;;;;4.39;100.00;96157.09;1035169;28;20682;-64
2023/02/21 04:13:15;;;;;;;7.60;4.35;;;;;;;4.39;100.00;96152.72;1039554;28;20032;-64
2023/02/21 04:13:46;;;;;;;6.45;3.78;;;;;;;4.41;100.00;96148.09;1042885;28;20036;-63
2023/02/21 04:14:16;;;;;;;6.00;3.90;;;;;;;4.47;100.00;96152.44;1039017;28;20029;-63
2023/02/21 04:14:47;;;;;;;7.13;3.72;;;;;;;4.49;100.00;96149.63;1043023;28;20028;-65
2023/02/21 04:15:17;;;;;;;8.13;4.18;;;;;;;4.51;100.00;96152.03;1042828;28;20095;-63
2023/02/21 04:15:48;;;;;;;6.35;4.05;;;;;;;4.56;100.00;96149.56;1043091;28;20079;-63
2023/02/21 04:16:18;;;;;;;7.10;4.00;;;;;;;4.51;100.00;96145.03;1043033;28;20314;-63
2023/02/21 04:16:49;;;;;;;6.10;3.78;;;;;;;4.63;100.00;96151.13;1038571;28;20083;-64
2023/02/21 04:17:19;;;;;;;11.98;4.03;;;;;;;4.64;100.00;96151.91;1039145;28;20624;-63
2023/02/21 04:17:49;;;;;;;5.90;3.70;;;;;;;4.61;100.00;96150.53;1038709;28;20031;-63
2023/02/21 04:18:20;;;;;;;5.90;3.65;;;;;;;4.61;100.00;96154.94;1038774;28;20021;-64
2023/02/21 04:18:51;;;;;;;8.00;4.40;;;;;;;4.63;100.00;96156.31;1039032;28;20037;-62
2023/02/21 04:19:22;;;;;;;6.43;3.88;;;;;;;4.69;100.00;96154.63;1038138;28;20037;-63
2023/02/21 04:19:52;;;;;;;5.10;3.92;;;;;;;4.65;100.00;96150.88;1039016;28;21211;-61
2023/02/21 04:20:23;;;;;;;7.88;3.80;;;;;;;4.79;100.00;96148.94;1043062;28;20025;-64
2023/02/21 04:20:53;;;;;;;5.40;3.65;;;;;;;4.72;100.00;96151.59;1046967;28;20033;-62
2023/02/21 04:21:24;;;;;;;6.50;3.50;;;;;;;4.80;100.00;96151.34;1047301;28;20024;-64
2023/02/21 04:21:54;;;;;;;6.32;4.03;;;;;;;4.75;100.00;96153.78;1042380;28;20033;-62
2023/02/21 04:22:25;;;;;;;6.50;3.47;;;;;;;4.75;100.00;96155.59;1043027;28;20482;-63
2023/02/21 04:22:55;;;;;;;7.05;4.63;;;;;;;4.74;100.00;96152.19;1038946;28;20049;-64
2023/02/21 04:23:25;;;;;;;5.65;3.85;;;;;;;4.70;100.00;96151.06;1034689;28;20030;-63
2023/02/21 04:23:56;;;;;;;7.03;3.30;;;;;;;4.72;100.00;96157.59;1034791;28;20082;-63
2023/02/21 04:24:27;;;;;;;6.28;3.67;;;;;;;4.88;100.00;96158.06;1034573;28;20280;-63
2023/02/21 04:24:57;;;;;;;8.68;3.92;;;;;;;4.91;100.00;96158.41;1030694;28;20024;-70
2023/02/21 04:25:28;;;;;;;7.10;3.35;;;;;;;4.88;100.00;96148.44;1034957;28;20046;-63
2023/02/21 04:25:58;;;;;;;5.68;3.50;;;;;;;4.81;100.00;96144.34;1038859;28;20021;-63
2023/02/21 04:26:28;;;;;;;5.53;3.85;;;;;;;4.86;100.00;96150.50;1039053;28;20407;-63
2023/02/21 04:27:00;;;;;;;7.60;3.53;;;;;;;4.84;100.00;96156.91;1043038;28;20024;-63
2023/02/21 04:27:31;;;;;;;6.88;3.88;;;;;;;4.69;100.00;96144.25;1038921;28;20400;-62
2023/02/21 04:28:01;;;;;;;6.32;3.80;;;;;;;4.69;100.00;96152.84;1038734;28;20275;-65
2023/02/21 04:28:32;;;;;;;10.70;4.63;;;;;;;4.65;100.00;96156.09;1038721;28;20099;-64
2023/02/21 04:29:02;;;;;;;6.18;3.65;;;;;;;4.61;100.00;96152.31;1039143;28;20133;-63
2023/02/21 04:29:33;;;;;;;5.97;3.80;;;;;;;4.57;100.00;96151.97;1042540;28;20049;-65
2023/02/21 04:30:03;;;;;;;9.80;3.75;;;;;;;4.56;100.00;96154.75;1042812;28;20604;-66
2023/02/21 04:30:34;;;;;;;7.68;3.95;;;;;;;4.53;100.00;96156.00;1042680;28;20032;-63
2023/02/21 04:31:04;;;;;;;7.38;3.65;;;;;;;4.54;100.00;96155.00;1039070;28;20022;-63
2023/02/21 04:31:35;;;;;;;6.97;3.85;;;;;;;4.53;100.00;96157.78;1030820;28;20508;-62
2023/02/21 04:32:05;;;;;;;7.13;3.90;;;;;;;4.55;100.00;96153.19;1034867;28;20101;-66
2023/02/21 04:32:36;;;;;;;12.05;4.32;;;;;;;4.49;100.00;96157.41;1030660;28;20121;-64
2023/02/21 04:33:06;;;;;;;6.03;3.95;;;;;;;4.52;100.00;96154.41;1030961;28;20034;-63
2023/02/21 04:33:37;;;;;;;6.63;4.22;;;;;;;4.47;100.00;96156.84;1030867;28;20024;-62
2023/02/21 04:34:07;;;;;;;8.23;4.07;;;;;;;4.41;100.00;96153.28;1035028;28;20026;-66
2023/02/21 04:34:38;;;;;;;6.78;4.13;;;;;;;4.40;100.00;96154.31;1034399;28;20484;-65
2023/02/21 04:35:08;;;;;;;7.75;3.90;;;;;;;4.33;100.00;96153.56;1035118;28;20034;-62
2023/02/21 04:35:39;;;;;;;7.35;4.20;;;;;;;4.24;100.00;96147.03;1034550;28;20041;-64
2023/02/21 04:36:09;;;;;;;7.30;4.15;;;;;;;4.31;100.00;96155.56;1031100;28;20548;-63
2023/02/21 04:36:40;;;;;;;9.25;4.13;;;;;;;4.27;100.00;96154.41;1030472;28;20030;-65
2023/02/21 04:37:10;;;;;;;10.23;4.60;;;;;;;4.27;100.00;96156.22;1030721;28;20399;-63
2023/02/21 04:37:42;;;;;;;6.95;4.20;;;;;;;4.22;100.00;96162.03;1034904;28;20435;-63
2023/02/21 04:38:12;;;;;;;6.93;4.10;;;;;;;4.19;100.00;96154.66;1034857;28;20018;-63
2023/02/21 04:38:42;;;;;;;5.93;4.30;;;;;;;4.13;100.00;96151.13;1034684;28;20312;-60
2023/02/21 04:39:13;;;;;;;7.07;4.13;;;;;;;4.15;100.00;96158.69;1042798;28;20755;-66
2023/02/21 04:39:43;;;;;;;8.35;4.15;;;;;;;4.08;100.00;96158.75;1038614;28;20450;-63
2023/02/21 04:40:14;;;;;;;7.57;4.07;;;;;;;4.03;100.00;96157.81;1038968;28;20098;-62
2023/02/21 04:40:44;;;;;;;6.50;4.30;;;;;;;4.03;100.00;96155.22;1034494;28;20026;-62
2023/02/21 04:41:15;;;;;;;7.45;4.13;;;;;;;3.96;100.00;96153.44;1034774;28;20025;-62
2023/02/21 04:41:46;;;;;;;7.40;4.15;;;;;;;3.93;100.00;96153.88;1039340;28;20474;-65
2023/02/21 04:42:16;;;;;;;7.13;4.25;;;;;;;3.79;100.00;96144.59;1038735;28;20026;-63
2023/02/21 04:42:47;;;;;;;8.75;4.10;;;;;;;3.85;100.00;96156.69;1038714;28;20557;-64
2023/02/21 04:43:17;;;;;;;9.77;4.75;;;;;;;3.81;100.00;96158.13;1030800;28;20026;-63
2023/02/21 04:43:48;;;;;;;7.95;4.38;;;;;;;3.78;100.00;96154.13;1030841;28;20037;-63
2023/02/21 04:44:18;;;;;;;8.52;4.72;;;;;;;3.76;100.00;96152.78;1026746;28;20041;-63
2023/02/21 04:44:49;;;;;;;9.18;5.28;;;;;;;3.74;100.00;96162.56;1023796;28;20031;-64
2023/02/21 04:45:19;;;;;;;9.68;5.00;;;;;;;3.67;100.00;96147.03;1026617;28;20041;-63
2023/02/21 04:45:49;;;;;;;8.20;4.50;;;;;;;3.70;100.00;96161.41;1027999;28;20523;-64
2023/02/21 04:46:20;;;;;;;6.70;4.57;;;;;;;3.69;100.00;96152.00;1030699;28;20090;-64
2023/02/21 04:46:50;;;;;;;8.48;4.43;;;;;;;3.64;100.00;96151.84;1030631;28;20038;-65
2023/02/21 04:47:21;;;;;;;9.05;4.47;;;;;;;3.65;100.00;96166.41;1034794;28;20372;-63
2023/02/21 04:47:51;;;;;;;7.05;4.57;;;;;;;3.60;100.00;96161.84;1034580;28;20407;-63
2023/02/21 04:48:22;;;;;;;8.90;4.97;;;;;;;3.63;100.00;96165.84;1035157;28;20040;-66
2023/02/21 04:48:53;;;;;;;6.93;4.55;;;;;;;3.61;100.00;96157.44;1037167;28;20065;-61
2023/02/21 04:49:26;;;;;;;8.27;4.72;;;;;;;3.59;100.00;96156.84;1034120;28;20074;-62
2023/02/21 04:49:57;;;;;;;8.07;4.78;;;;;;;3.60;100.00;96161.06;1035009;28;20030;-65
2023/02/21 04:50:28;;;;;;;7.97;4.28;;;;;;;3.62;100.00;96159.03;1034912;28;20620;-63
2023/02/21 04:50:58;;;;;;;7.95;4.30;;;;;;;3.59;100.00;96164.63;1035785;28;20269;-63
2023/02/21 04:51:29;;;;;;;7.32;4.65;;;;;;;3.59;100.00;96167.22;1043461;28;20441;-64
2023/02/21 04:51:59;;;;;;;6.78;4.50;;;;;;;3.59;100.00;96165.44;1038925;28;20091;-64
2023/02/21 04:52:30;;;;;;;10.32;4.40;;;;;;;3.54;100.00;96168.66;1034974;28;20041;-64
2023/02/21 04:53:00;;;;;;;7.30;4.90;;;;;;;3.51;100.00;96169.06;1034642;28;20056;-64
2023/02/21 04:53:31;;;;;;;7.68;4.75;;;;;;;3.47;100.00;96167.88;1034892;28;20546;-63
2023/02/21 04:54:01;;;;;;;12.05;4.50;;;;;;;3.45;100.00;96166.50;1035192;28;20033;-63
2023/02/21 04:54:32;;;;;;;8.07;4.72;;;;;;;3.47;100.00;96157.50;1038652;28;20029;-65
2023/02/21 04:55:02;;;;;;;8.00;4.90;;;;;;;3.40;100.00;96164.53;1038841;28;20503;-62
2023/02/21 04:55:33;;;;;;;6.82;4.60;;;;;;;3.44;100.00;96175.28;1039343;28;20051;-64
2023/02/21 04:56:04;;;;;;;7.88;4.22;;;;;;;3.38;100.00;96163.94;1038795;28;20087;-62